Time;durP1;ratioP1;P1;durP2;ratioP2;P2;SDS_P1;SDS_P2;PMS_P1;PMS_P2;Temp;Humidity;BMP_temperature;BMP_pressure;BME280_temperature;BME280_humidity;BME280_pressure;Samples;Min_cycle;Max_cycle;Signal;HPM_P1;HPM_P2
2023/07/02 19:13:36;;;;;;;20.47;12.73;;;24.30;61.30;;;;;;5056568;27;20645;-66
2023/07/02 19:16:02;;;;;;;18.20;13.27;;;24.10;62.30;;;;;;5040609;28;20415;-66
2023/07/02 19:18:27;;;;;;;17.43;11.53;;;24.10;62.30;;;;;;5039489;28;20212;-67
2023/07/02 19:20:56;;;;;;;19.00;12.77;;;24.20;62.00;;;;;;5033631;28;20176;-66
2023/07/02 19:23:22;;;;;;;20.60;13.83;;;24.40;61.80;;;;;;5035896;28;20234;-67
2023/07/02 19:25:47;;;;;;;18.83;13.33;;;24.50;62.00;;;;;;5035892;28;20932;-66
2023/07/02 19:28:13;;;;;;;19.57;14.90;;;24.40;62.00;;;;;;5029121;28;20211;-66
2023/07/02 19:30:39;;;;;;;17.13;11.90;;;24.40;62.10;;;;;;5038031;28;20218;-65
2023/07/02 19:33:05;;;;;;;17.17;12.00;;;24.50;61.60;;;;;;5037746;28;21023;-66
2023/07/02 19:35:30;;;;;;;19.77;12.77;;;24.60;61.60;;;;;;5036765;28;20180;-66
2023/07/02 19:37:56;;;;;;;18.93;12.33;;;24.50;61.00;;;;;;5030461;28;20998;-66
2023/07/02 19:40:24;;;;;;;21.33;14.50;;;24.50;61.80;;;;;;5036657;28;20554;-67
2023/07/02 19:42:50;;;;;;;17.93;12.40;;;24.50;61.90;;;;;;5042395;28;20176;-67
2023/07/02 19:45:15;;;;;;;17.07;12.63;;;24.50;61.60;;;;;;5034691;28;20492;-67
2023/07/02 19:47:41;;;;;;;18.73;13.10;;;24.50;61.70;;;;;;5042795;28;20229;-67
2023/07/02 19:50:07;;;;;;;19.23;12.90;;;24.50;61.70;;;;;;5037350;28;20417;-67
2023/07/02 19:52:32;;;;;;;18.70;12.67;;;24.50;61.50;;;;;;5038971;28;20291;-66
2023/07/02 19:55:10;;;;;;;18.60;12.50;;;24.30;62.10;;;;;;5035356;28;20176;-70
2023/07/02 19:57:37;;;;;;;18.13;12.80;;;24.40;62.20;;;;;;5034663;28;20179;-66
2023/07/02 20:00:08;;;;;;;18.97;12.97;;;24.30;62.70;;;;;;5030866;28;20441;-67
2023/07/02 20:02:35;;;;;;;17.73;12.90;;;24.20;63.20;;;;;;5035335;28;20435;-67
2023/07/02 20:05:02;;;;;;;25.47;14.10;;;24.10;63.40;;;;;;5028922;28;20992;-67
2023/07/02 20:07:28;;;;;;;21.07;13.13;;;24.00;64.40;;;;;;5033491;28;20449;-67
2023/07/02 20:09:55;;;;;;;21.93;13.93;;;24.00;64.50;;;;;;5040883;28;20442;-66
2023/07/02 20:12:22;;;;;;;17.67;12.10;;;24.10;64.40;;;;;;5029488;28;20303;-66
2023/07/02 20:14:48;;;;;;;20.47;12.93;;;24.00;63.90;;;;;;5035623;28;20994;-67
2023/07/02 20:17:15;;;;;;;16.73;12.90;;;24.10;64.00;;;;;;5035617;28;20408;-67
2023/07/02 20:19:48;;;;;;;20.00;14.73;;;23.90;64.70;;;;;;5034976;28;20450;-66
2023/07/02 20:22:14;;;;;;;20.43;13.93;;;23.90;65.40;;;;;;5034043;28;20462;-67
2023/07/02 20:24:40;;;;;;;18.40;12.47;;;23.80;65.30;;;;;;5028314;28;20900;-67
2023/07/02 20:27:05;;;;;;;19.83;11.40;;;23.80;65.30;;;;;;5020225;28;21227;-67
2023/07/02 20:29:31;;;;;;;18.43;14.03;;;23.80;65.60;;;;;;5018455;28;20208;-66
2023/07/02 20:31:56;;;;;;;21.03;12.93;;;23.70;66.10;;;;;;5024578;28;20192;-67
2023/07/02 20:34:23;;;;;;;20.83;13.30;;;23.50;66.20;;;;;;5017016;28;20179;-67
2023/07/02 20:36:53;;;;;;;21.10;13.60;;;23.60;66.30;;;;;;5020660;28;20190;-66
2023/07/02 20:39:19;;;;;;;19.57;12.80;;;23.50;66.90;;;;;;5016898;28;21699;-66
2023/07/02 20:41:46;;;;;;;19.20;13.97;;;23.40;67.50;;;;;;5024126;28;20772;-66
2023/07/02 20:44:15;;;;;;;20.63;12.10;;;23.40;67.60;;;;;;5020977;28;20841;-66
2023/07/02 20:46:47;;;;;;;20.77;13.37;;;23.40;68.40;;;;;;5019330;28;20432;-66
2023/07/02 20:49:20;;;;;;;19.07;12.37;;;23.40;68.60;;;;;;5020966;28;20447;-66
2023/07/02 20:51:47;;;;;;;21.80;13.70;;;23.30;66.60;;;;;;5022443;28;20467;-66
2023/07/02 20:54:14;;;;;;;20.60;13.20;;;23.20;67.70;;;;;;5019686;28;20438;-66
2023/07/02 20:56:40;;;;;;;16.20;11.90;;;23.30;68.30;;;;;;5017181;28;20440;-66
2023/07/02 20:59:07;;;;;;;22.40;12.60;;;23.30;67.80;;;;;;5023043;28;20450;-66
2023/07/02 21:01:33;;;;;;;20.00;12.53;;;23.30;68.00;;;;;;5013799;28;20180;-66
2023/07/02 21:04:06;;;;;;;17.70;11.73;;;23.20;68.20;;;;;;5022292;28;20427;-66
2023/07/02 21:06:33;;;;;;;17.50;11.87;;;23.10;68.40;;;;;;5012366;28;20457;-66
2023/07/02 21:09:03;;;;;;;22.50;12.80;;;23.10;68.50;;;;;;5020736;28;20783;-66
2023/07/02 21:11:29;;;;;;;19.60;12.53;;;23.10;68.60;;;;;;5017817;28;20542;-66
2023/07/02 21:13:55;;;;;;;24.40;13.50;;;23.00;68.90;;;;;;5019990;28;20543;-66
2023/07/02 21:16:21;;;;;;;19.50;11.83;;;23.00;68.80;;;;;;5020834;28;20301;-66
2023/07/02 21:18:46;;;;;;;19.00;11.50;;;23.00;68.80;;;;;;5023762;28;20271;-66
2023/07/02 21:21:12;;;;;;;16.40;11.40;;;23.00;69.10;;;;;;5019160;28;20626;-66
2023/07/02 21:23:37;;;;;;;17.97;12.77;;;22.90;69.10;;;;;;5024632;28;20792;-66
2023/07/02 21:26:03;;;;;;;21.43;12.30;;;23.00;69.00;;;;;;5012942;28;20189;-66
2023/07/02 21:28:29;;;;;;;23.80;12.60;;;23.00;68.70;;;;;;5016056;28;20207;-68
2023/07/02 21:30:55;;;;;;;16.63;11.73;;;23.00;69.00;;;;;;5018401;28;20482;-66
2023/07/02 21:33:21;;;;;;;19.40;11.93;;;23.00;68.60;;;;;;5020823;28;20212;-66
2023/07/02 21:35:47;;;;;;;14.60;11.00;;;22.90;69.00;;;;;;5015137;28;20168;-66
2023/07/02 21:38:14;;;;;;;19.00;11.67;;;22.80;69.10;;;;;;5018942;28;20812;-66
2023/07/02 21:40:39;;;;;;;19.67;12.53;;;22.70;69.50;;;;;;5020368;28;20442;-66
2023/07/02 21:43:05;;;;;;;18.20;12.97;;;22.70;69.70;;;;;;5011755;28;20427;-66
2023/07/02 21:45:31;;;;;;;19.50;11.10;;;22.70;70.00;;;;;;5016974;28;20323;-66
2023/07/02 21:47:56;;;;;;;16.73;11.20;;;22.70;70.10;;;;;;5020245;28;20287;-66
2023/07/02 21:50:22;;;;;;;19.60;12.83;;;22.80;70.10;;;;;;5015465;28;20245;-66
2023/07/02 21:52:47;;;;;;;18.07;12.50;;;22.70;70.20;;;;;;5014480;28;20213;-66
2023/07/02 21:55:13;;;;;;;19.00;11.67;;;22.70;70.70;;;;;;5015671;28;20291;-66
2023/07/02 21:57:38;;;;;;;21.50;12.07;;;22.60;70.90;;;;;;5015694;28;20254;-66
2023/07/02 22:00:10;;;;;;;16.23;11.20;;;22.60;71.00;;;;;;5014814;28;20215;-66
2023/07/02 22:02:36;;;;;;;19.60;12.50;;;22.60;70.80;;;;;;5016796;28;20200;-66
2023/07/02 22:05:02;;;;;;;19.27;12.90;;;22.50;71.30;;;;;;5015122;28;20482;-66
2023/07/02 22:07:29;;;;;;;17.90;11.97;;;22.50;71.20;;;;;;5014533;28;20435;-66
2023/07/02 22:09:55;;;;;;;18.07;11.70;;;22.50;71.20;;;;;;5014811;28;20444;-67
2023/07/02 22:12:20;;;;;;;19.50;12.80;;;22.50;71.40;;;;;;5015459;28;20517;-67
2023/07/02 22:14:46;;;;;;;18.80;11.10;;;22.50;71.80;;;;;;5021676;28;20661;-66
2023/07/02 22:17:11;;;;;;;18.67;12.00;;;22.50;72.00;;;;;;5024883;28;20173;-66
2023/07/02 22:19:37;;;;;;;14.53;10.70;;;22.60;72.40;;;;;;5022778;28;20204;-66
2023/07/02 22:22:06;;;;;;;17.07;11.90;;;22.60;72.30;;;;;;5013532;28;20196;-66
2023/07/02 22:24:31;;;;;;;16.17;11.30;;;22.60;72.20;;;;;;5013715;28;20444;-66
2023/07/02 22:26:57;;;;;;;19.57;12.00;;;22.60;72.80;;;;;;5018191;28;20446;-66
2023/07/02 22:29:23;;;;;;;17.27;12.63;;;22.60;73.20;;;;;;5017843;28;20257;-66
2023/07/02 22:31:49;;;;;;;16.73;11.53;;;22.40;73.90;;;;;;5023152;28;20193;-66
2023/07/02 22:34:15;;;;;;;19.30;11.60;;;22.40;73.80;;;;;;5016599;28;20442;-66
2023/07/02 22:36:41;;;;;;;21.97;11.97;;;22.40;73.80;;;;;;5018713;28;20522;-67
2023/07/02 22:39:08;;;;;;;18.57;11.30;;;22.50;73.70;;;;;;5013911;28;20209;-67
2023/07/02 22:41:33;;;;;;;16.47;11.00;;;22.50;73.90;;;;;;5020951;28;20424;-67
2023/07/02 22:43:59;;;;;;;17.43;11.90;;;22.50;74.00;;;;;;5017130;28;20485;-67
2023/07/02 22:46:24;;;;;;;17.83;11.00;;;22.40;74.40;;;;;;5015496;28;22073;-67
2023/07/02 22:48:50;;;;;;;15.80;10.80;;;22.40;74.60;;;;;;5021442;28;20276;-66
2023/07/02 22:51:15;;;;;;;16.53;11.80;;;22.30;74.90;;;;;;5018419;28;20188;-66
2023/07/02 22:53:41;;;;;;;15.03;11.27;;;22.40;75.00;;;;;;5020658;28;20203;-66
2023/07/02 22:56:15;;;;;;;18.40;12.87;;;22.40;75.00;;;;;;5016765;28;20238;-66
2023/07/02 22:58:41;;;;;;;20.10;12.27;;;22.30;76.00;;;;;;5018592;28;20204;-66
2023/07/02 23:01:07;;;;;;;18.17;11.50;;;22.20;75.80;;;;;;5014040;28;20475;-66
2023/07/02 23:03:34;;;;;;;22.10;12.27;;;22.00;76.20;;;;;;5016147;28;21160;-66
2023/07/02 23:05:59;;;;;;;17.63;11.43;;;22.00;76.60;;;;;;5017027;28;20447;-66
2023/07/02 23:08:25;;;;;;;19.70;12.00;;;22.00;76.80;;;;;;5014233;28;20536;-66
2023/07/02 23:10:50;;;;;;;20.27;12.47;;;21.90;77.10;;;;;;5018846;28;20231;-66
2023/07/02 23:13:16;;;;;;;14.13;11.53;;;22.00;77.10;;;;;;5020820;28;20219;-66
2023/07/02 23:15:42;;;;;;;19.97;12.17;;;22.00;77.00;;;;;;5021340;28;20199;-66
2023/07/02 23:18:07;;;;;;;19.90;11.70;;;22.00;77.10;;;;;;5022337;28;20518;-66
2023/07/02 23:20:36;;;;;;;18.70;12.90;;;22.00;77.30;;;;;;5021382;28;20188;-66
2023/07/02 23:23:02;;;;;;;20.63;13.10;;;21.90;77.40;;;;;;5017363;28;20177;-66
2023/07/02 23:25:30;;;;;;;15.33;11.50;;;21.80;77.80;;;;;;5020237;28;20439;-66
2023/07/02 23:28:06;;;;;;;16.67;10.90;;;21.70;78.00;;;;;;5016924;28;20438;-66
2023/07/02 23:30:33;;;;;;;20.10;11.03;;;21.70;78.60;;;;;;5009840;28;20432;-66
2023/07/02 23:33:05;;;;;;;18.70;11.50;;;21.70;78.50;;;;;;5020004;28;20471;-66
2023/07/02 23:35:31;;;;;;;21.17;12.77;;;21.60;78.60;;;;;;5021590;28;20490;-66
2023/07/02 23:37:57;;;;;;;23.83;12.13;;;21.70;78.70;;;;;;5019095;28;20517;-66
2023/07/02 23:40:23;;;;;;;17.03;11.20;;;21.70;78.50;;;;;;5018625;28;20823;-66
2023/07/02 23:42:50;;;;;;;18.17;11.40;;;21.60;78.80;;;;;;5019978;28;20188;-66
2023/07/02 23:45:16;;;;;;;16.23;11.53;;;21.50;79.00;;;;;;5014539;28;20474;-66
2023/07/02 23:47:42;;;;;;;16.30;11.50;;;21.40;79.30;;;;;;5018093;28;20455;-66
2023/07/02 23:50:12;;;;;;;20.77;11.60;;;21.30;79.90;;;;;;5018891;28;20438;-66
2023/07/02 23:52:38;;;;;;;25.17;12.00;;;21.40;80.40;;;;;;5018209;28;20470;-66
2023/07/02 23:55:06;;;;;;;23.70;11.90;;;21.40;79.70;;;;;;5015099;28;20479;-66
2023/07/02 23:57:33;;;;;;;17.40;11.20;;;21.40;79.90;;;;;;5020478;28;20443;-66
2023/07/02 23:59:59;;;;;;;17.30;11.60;;;21.30;79.90;;;;;;5018148;28;20462;-66
